createdAt,value
2016-06-11T00:00:24.448Z,1008.27
2016-06-11T00:01:24.420Z,1008.28
2016-06-11T00:02:24.407Z,1008.33
2016-06-11T00:03:24.379Z,1008.31
2016-06-11T00:04:24.366Z,1008.3
2016-06-11T00:05:24.369Z,1008.31
2016-06-11T00:06:24.357Z,1008.28
2016-06-11T00:07:24.298Z,1008.27
2016-06-11T00:08:24.285Z,1008.3
2016-06-11T00:09:24.273Z,1008.26
2016-06-11T00:10:24.244Z,1008.24
2016-06-11T00:11:24.231Z,1008.3
2016-06-11T00:12:24.204Z,1008.3
2016-06-11T00:13:24.191Z,1008.28
2016-06-11T00:14:24.163Z,1008.27
2016-06-11T00:15:24.150Z,1008.28
2016-06-11T00:16:24.137Z,1008.26
2016-06-11T00:17:24.110Z,1008.28
2016-06-11T00:18:24.097Z,1008.29
2016-06-11T00:19:24.084Z,1008.27
2016-06-11T00:20:24.056Z,1008.3
2016-06-11T00:21:24.043Z,1008.35
2016-06-11T00:22:24.016Z,1008.31
2016-06-11T00:23:24.003Z,1008.29
2016-06-11T00:24:23.974Z,1008.28
2016-06-11T00:25:23.963Z,1008.25
2016-06-11T00:26:23.950Z,1008.28
2016-06-11T00:27:23.922Z,1008.25
2016-06-11T00:28:23.909Z,1008.22
2016-06-11T00:29:24.522Z,1008.21
2016-06-11T00:30:23.868Z,1008.22
2016-06-11T00:31:23.840Z,1008.22
2016-06-11T00:32:23.827Z,1008.22
2016-06-11T00:33:23.815Z,1008.26
2016-06-11T00:34:23.802Z,1008.22
2016-06-11T00:35:23.774Z,1008.17
2016-06-11T00:36:23.747Z,1008.22
2016-06-11T00:37:23.733Z,1008.19
2016-06-11T00:38:23.706Z,1008.21
2016-06-11T00:39:23.692Z,1008.19
2016-06-11T00:40:23.681Z,1008.17
2016-06-11T00:41:23.652Z,1008.18
2016-06-11T00:42:23.640Z,1008.2
2016-06-11T00:43:23.611Z,1008.21
2016-06-11T00:44:24.536Z,1008.17
2016-06-11T00:45:23.571Z,1008.14
2016-06-11T00:46:23.558Z,1008.15
2016-06-11T00:47:23.546Z,1008.14
2016-06-11T00:48:23.517Z,1008.14
2016-06-11T00:49:23.489Z,1008.1
2016-06-11T00:50:23.477Z,1008.08
2016-06-11T00:51:23.465Z,1008.14
2016-06-11T00:52:23.435Z,1008.11
2016-06-11T00:53:23.424Z,1008.01
2016-06-11T00:54:23.395Z,1008.05
2016-06-11T00:55:23.383Z,1008.05
2016-06-11T00:56:23.370Z,1008.01
2016-06-11T00:57:23.341Z,1008.01
2016-06-11T00:58:23.329Z,1008.02
2016-06-11T00:59:23.301Z,1007.96
2016-06-11T01:00:23.288Z,1008.04
2016-06-11T01:01:23.276Z,1008
2016-06-11T01:02:23.248Z,1007.94
2016-06-11T01:03:23.235Z,1007.96
2016-06-11T01:04:23.208Z,1007.96
2016-06-11T01:05:23.194Z,1007.91
2016-06-11T01:06:23.182Z,1007.95
2016-06-11T01:07:23.153Z,1007.9
2016-06-11T01:08:23.142Z,1007.88
2016-06-11T01:09:23.113Z,1007.88
2016-06-11T01:10:23.101Z,1007.89
2016-06-11T01:11:23.072Z,1007.94
2016-06-11T01:12:23.060Z,1007.96
2016-06-11T01:13:23.047Z,1007.91
2016-06-11T01:14:23.019Z,1007.92
2016-06-11T01:15:23.006Z,1007.93
2016-06-11T01:16:22.978Z,1007.92
2016-06-11T01:17:22.966Z,1007.95
2016-06-11T01:18:22.954Z,1007.96
2016-06-11T01:19:22.925Z,1007.94
2016-06-11T01:20:22.897Z,1007.92
2016-06-11T01:21:22.885Z,1007.97
2016-06-11T01:22:22.871Z,1007.95
2016-06-11T01:23:22.844Z,1007.91
2016-06-11T01:24:22.830Z,1007.89
2016-06-11T01:25:22.803Z,1007.9
2016-06-11T01:26:22.790Z,1007.88
2016-06-11T01:27:22.762Z,1007.9
2016-06-11T01:28:22.749Z,1007.86
2016-06-11T01:29:23.268Z,1007.87
2016-06-11T01:30:22.710Z,1007.81
2016-06-11T01:31:22.696Z,1007.88
2016-06-11T01:32:22.669Z,1007.85
2016-06-11T01:33:22.655Z,1007.87
2016-06-11T01:34:22.627Z,1007.86
2016-06-11T01:35:22.615Z,1007.85
2016-06-11T01:36:22.603Z,1007.86
2016-06-11T01:37:22.574Z,1007.86
2016-06-11T01:38:22.562Z,1007.83
2016-06-11T01:39:22.533Z,1007.85
2016-06-11T01:40:22.521Z,1007.84
2016-06-11T01:41:22.494Z,1007.86
2016-06-11T01:42:22.480Z,1007.87
2016-06-11T01:43:22.467Z,1007.86
2016-06-11T01:44:22.440Z,1007.92
2016-06-11T01:45:22.426Z,1007.88
2016-06-11T01:46:22.399Z,1007.82
2016-06-11T01:47:22.386Z,1007.83
2016-06-11T01:48:22.357Z,1007.81
2016-06-11T01:49:22.346Z,1007.84
2016-06-11T01:50:22.333Z,1007.81
2016-06-11T01:51:22.304Z,1007.81
2016-06-11T01:52:22.292Z,1007.8
2016-06-11T01:53:22.280Z,1007.83
2016-06-11T01:54:22.251Z,1007.82
2016-06-11T01:55:22.223Z,1007.81
2016-06-11T01:56:22.210Z,1007.85
2016-06-11T01:57:22.198Z,1007.78
2016-06-11T01:58:22.170Z,1007.79
2016-06-11T01:59:22.157Z,1007.82
2016-06-11T02:00:22.130Z,1007.8
2016-06-11T02:01:22.116Z,1007.79
2016-06-11T02:02:22.104Z,1007.77
2016-06-11T02:03:22.139Z,1007.77
2016-06-11T02:04:22.110Z,1007.75
2016-06-11T02:05:22.098Z,1007.75
2016-06-11T02:06:22.101Z,1007.7
2016-06-11T02:07:21.994Z,1007.72
2016-06-11T02:08:21.982Z,1007.7
2016-06-11T02:09:21.970Z,1007.72
2016-06-11T02:10:21.942Z,1007.71
2016-06-11T02:11:21.928Z,1007.71
2016-06-11T02:12:21.917Z,1007.71
2016-06-11T02:13:21.888Z,1007.72
2016-06-11T02:14:22.157Z,1007.73
2016-06-11T02:15:21.847Z,1007.71
2016-06-11T02:16:21.819Z,1007.73
2016-06-11T02:17:21.807Z,1007.73
2016-06-11T02:18:21.794Z,1007.67
2016-06-11T02:19:21.766Z,1007.71
2016-06-11T02:20:21.753Z,1007.69
2016-06-11T02:21:21.725Z,1007.72
2016-06-11T02:22:21.712Z,1007.7
2016-06-11T02:23:21.685Z,1007.7
2016-06-11T02:24:21.671Z,1007.72
2016-06-11T02:25:21.643Z,1007.7
2016-06-11T02:26:21.632Z,1007.71
2016-06-11T02:27:21.619Z,1007.68
2016-06-11T02:28:21.590Z,1007.68
2016-06-11T02:29:22.297Z,1007.73
2016-06-11T02:30:21.549Z,1007.7
2016-06-11T02:31:21.537Z,1007.64
2016-06-11T02:32:21.509Z,1007.7
2016-06-11T02:33:21.496Z,1007.71
2016-06-11T02:34:21.484Z,1007.68
2016-06-11T02:35:21.455Z,1007.69
2016-06-11T02:36:21.537Z,1007.7
2016-06-11T02:37:21.415Z,1007.65
2016-06-11T02:38:21.403Z,1007.74
2016-06-11T02:39:21.374Z,1007.68
2016-06-11T02:40:21.361Z,1007.69
2016-06-11T02:41:21.348Z,1007.62
2016-06-11T02:42:21.321Z,1007.65
2016-06-11T02:43:21.293Z,1007.63
2016-06-11T02:44:21.280Z,1007.69
2016-06-11T02:45:21.267Z,1007.66
2016-06-11T02:46:21.239Z,1007.65
2016-06-11T02:47:21.227Z,1007.64
2016-06-11T02:48:21.199Z,1007.65
2016-06-11T02:49:21.186Z,1007.65
2016-06-11T02:50:21.158Z,1007.6
2016-06-11T02:51:21.145Z,1007.59
2016-06-11T02:52:21.118Z,1007.58
2016-06-11T02:53:21.104Z,1007.63
2016-06-11T02:54:21.092Z,1007.61
2016-06-11T02:55:21.064Z,1007.62
2016-06-11T02:56:21.052Z,1007.61
2016-06-11T02:57:21.022Z,1007.63
2016-06-11T02:58:21.011Z,1007.62
2016-06-11T02:59:20.983Z,1007.63
2016-06-11T03:00:21.829Z,1007.59
2016-06-11T03:01:20.957Z,1007.63
2016-06-11T03:02:20.930Z,1007.65
2016-06-11T03:03:20.916Z,1007.64
2016-06-11T03:04:20.888Z,1007.62
2016-06-11T03:05:20.877Z,1007.62
2016-06-11T03:06:20.847Z,1007.63
2016-06-11T03:07:20.835Z,1007.62
2016-06-11T03:08:20.807Z,1007.64
2016-06-11T03:09:20.795Z,1007.68
2016-06-11T03:10:20.782Z,1007.66
2016-06-11T03:11:20.753Z,1007.66
2016-06-11T03:12:20.725Z,1007.66
2016-06-11T03:13:20.713Z,1007.69
2016-06-11T03:14:21.466Z,1007.67
2016-06-11T03:15:21.500Z,1007.69
2016-06-11T03:16:20.660Z,1007.68
2016-06-11T03:17:20.631Z,1007.68
2016-06-11T03:18:20.619Z,1007.68
2016-06-11T03:19:20.591Z,1007.69
2016-06-11T03:20:20.578Z,1007.69
2016-06-11T03:21:20.565Z,1007.67
2016-06-11T03:22:20.554Z,1007.67
2016-06-11T03:23:20.525Z,1007.72
2016-06-11T03:24:20.496Z,1007.7
2016-06-11T03:25:20.484Z,1007.72
2016-06-11T03:26:20.456Z,1007.67
2016-06-11T03:27:20.444Z,1007.71
2016-06-11T03:28:20.415Z,1007.73
2016-06-11T03:29:20.403Z,1007.69
2016-06-11T03:30:20.640Z,1007.72
2016-06-11T03:31:20.362Z,1007.73
2016-06-11T03:32:20.349Z,1007.73
2016-06-11T03:33:20.322Z,1007.7
2016-06-11T03:34:20.309Z,1007.67
2016-06-11T03:35:20.280Z,1007.71
2016-06-11T03:36:20.268Z,1007.64
2016-06-11T03:37:20.240Z,1007.67
2016-06-11T03:38:20.227Z,1007.72
2016-06-11T03:39:20.199Z,1007.74
2016-06-11T03:40:20.187Z,1007.7
2016-06-11T03:41:20.174Z,1007.74
2016-06-11T03:42:20.146Z,1007.74
2016-06-11T03:43:20.133Z,1007.72
2016-06-11T03:44:20.105Z,1007.74
2016-06-11T03:45:20.092Z,1007.74
2016-06-11T03:46:20.080Z,1007.73
2016-06-11T03:47:20.052Z,1007.72
2016-06-11T03:48:20.040Z,1007.71
2016-06-11T03:49:20.012Z,1007.68
2016-06-11T03:50:19.998Z,1007.73
2016-06-11T03:51:19.971Z,1007.71
2016-06-11T03:52:19.958Z,1007.71
2016-06-11T03:53:19.930Z,1007.74
2016-06-11T03:54:19.917Z,1007.7
2016-06-11T03:55:19.889Z,1007.69
2016-06-11T03:56:19.876Z,1007.71
2016-06-11T03:57:19.848Z,1007.69
2016-06-11T03:58:19.836Z,1007.67
2016-06-11T03:59:19.823Z,1007.73
2016-06-11T04:00:19.795Z,1007.71
2016-06-11T04:01:19.782Z,1007.77
2016-06-11T04:02:19.754Z,1007.74
2016-06-11T04:03:19.741Z,1007.72
2016-06-11T04:04:19.713Z,1007.78
2016-06-11T04:05:19.701Z,1007.76
2016-06-11T04:06:19.689Z,1007.75
2016-06-11T04:07:19.659Z,1007.79
2016-06-11T04:08:19.648Z,1007.76
2016-06-11T04:09:19.619Z,1007.75
2016-06-11T04:10:19.607Z,1007.74
2016-06-11T04:11:19.579Z,1007.74
2016-06-11T04:12:19.566Z,1007.74
2016-06-11T04:13:19.538Z,1007.8
2016-06-11T04:14:19.526Z,1007.77
2016-06-11T04:15:19.497Z,1007.8
2016-06-11T04:16:19.484Z,1007.76
2016-06-11T04:17:19.473Z,1007.73
2016-06-11T04:18:19.443Z,1007.75
2016-06-11T04:19:19.431Z,1007.77
2016-06-11T04:20:19.403Z,1007.76
2016-06-11T04:21:19.391Z,1007.72
2016-06-11T04:22:19.363Z,1007.76
2016-06-11T04:23:19.350Z,1007.75
2016-06-11T04:24:19.323Z,1007.77
2016-06-11T04:25:19.309Z,1007.77
2016-06-11T04:26:19.278Z,1007.75
2016-06-11T04:27:19.265Z,1007.73
2016-06-11T04:28:19.253Z,1007.77
2016-06-11T04:29:19.225Z,1007.76
2016-06-11T04:30:19.227Z,1007.76
2016-06-11T04:31:19.184Z,1007.76
2016-06-11T04:32:19.172Z,1007.76
2016-06-11T04:33:19.144Z,1007.78
2016-06-11T04:34:19.147Z,1007.77
2016-06-11T04:35:19.103Z,1007.79
2016-06-11T04:36:19.090Z,1007.8
2016-06-11T04:37:19.077Z,1007.76
2016-06-11T04:38:19.049Z,1007.72
2016-06-11T04:39:19.037Z,1007.73
2016-06-11T04:40:19.008Z,1007.7
2016-06-11T04:41:18.996Z,1007.7
2016-06-11T04:42:18.968Z,1007.72
2016-06-11T04:43:18.955Z,1007.76
2016-06-11T04:44:18.942Z,1007.75
2016-06-11T04:45:19.618Z,1007.73
2016-06-11T04:46:18.901Z,1007.76
2016-06-11T04:47:18.873Z,1007.8
2016-06-11T04:48:18.861Z,1007.78
2016-06-11T04:49:18.833Z,1007.74
2016-06-11T04:50:18.821Z,1007.77
2016-06-11T04:51:18.792Z,1007.79
2016-06-11T04:52:18.780Z,1007.76
2016-06-11T04:53:18.751Z,1007.84
2016-06-11T04:54:18.740Z,1007.81
2016-06-11T04:55:18.726Z,1007.81
2016-06-11T04:56:18.698Z,1007.8
2016-06-11T04:57:18.685Z,1007.78
2016-06-11T04:58:18.657Z,1007.8
2016-06-11T04:59:18.645Z,1007.84
2016-06-11T05:00:18.617Z,1007.82
2016-06-11T05:01:18.604Z,1007.84
2016-06-11T05:02:18.592Z,1007.9
2016-06-11T05:03:18.564Z,1007.85
2016-06-11T05:04:18.551Z,1007.83
2016-06-11T05:05:18.523Z,1007.85
2016-06-11T05:06:18.510Z,1007.84
2016-06-11T05:07:18.498Z,1007.86
2016-06-11T05:08:18.470Z,1007.84
2016-06-11T05:09:18.441Z,1007.82
2016-06-11T05:10:18.429Z,1007.87
2016-06-11T05:11:18.416Z,1007.89
2016-06-11T05:12:18.389Z,1007.83
2016-06-11T05:13:18.376Z,1007.88
2016-06-11T05:14:18.347Z,1007.86
2016-06-11T05:15:18.679Z,1007.88
2016-06-11T05:16:18.338Z,1007.88
2016-06-11T05:17:18.294Z,1007.88
2016-06-11T05:18:18.266Z,1007.89
2016-06-11T05:19:18.253Z,1007.89
2016-06-11T05:20:18.242Z,1007.91
2016-06-11T05:21:18.213Z,1007.88
2016-06-11T05:22:18.200Z,1007.91
2016-06-11T05:23:18.172Z,1007.91
2016-06-11T05:24:18.160Z,1007.94
2016-06-11T05:25:18.131Z,1007.9
2016-06-11T05:26:18.119Z,1007.91
2016-06-11T05:27:18.106Z,1007.93
2016-06-11T05:28:18.077Z,1007.91
2016-06-11T05:29:18.066Z,1007.93
2016-06-11T05:30:18.084Z,1007.92
2016-06-11T05:31:18.025Z,1007.9
2016-06-11T05:32:17.996Z,1007.92
2016-06-11T05:33:17.984Z,1007.94
2016-06-11T05:34:17.956Z,1007.91
2016-06-11T05:35:17.943Z,1007.94
2016-06-11T05:36:17.916Z,1007.96
2016-06-11T05:37:17.902Z,1007.94
2016-06-11T05:38:17.889Z,1007.92
2016-06-11T05:39:17.878Z,1007.93
2016-06-11T05:40:18.458Z,1007.96
2016-06-11T05:41:17.820Z,1007.91
2016-06-11T05:42:17.809Z,1007.91
2016-06-11T05:43:17.780Z,1007.95
2016-06-11T05:44:17.768Z,1007.93
2016-06-11T05:45:18.036Z,1007.88
2016-06-11T05:46:17.728Z,1007.96
2016-06-11T05:47:17.714Z,1007.93
2016-06-11T05:48:17.686Z,1007.95
2016-06-11T05:49:17.673Z,1007.9
2016-06-11T05:50:17.646Z,1007.92
2016-06-11T05:51:17.633Z,1007.92
2016-06-11T05:52:17.604Z,1007.96
2016-06-11T05:53:17.593Z,1007.93
2016-06-11T05:54:17.580Z,1007.96
2016-06-11T05:55:17.552Z,1007.95
2016-06-11T05:56:17.538Z,1007.93
2016-06-11T05:57:17.545Z,1007.95
2016-06-11T05:58:17.574Z,1007.96
2016-06-11T05:59:17.586Z,1007.99
2016-06-11T06:00:17.645Z,1008
2016-06-11T06:01:17.627Z,1007.99
2016-06-11T06:02:17.633Z,1008.05
2016-06-11T06:03:17.635Z,1008.01
2016-06-11T06:04:17.621Z,1007.98
2016-06-11T06:05:17.623Z,1007.96
2016-06-11T06:06:17.610Z,1007.98
2016-06-11T06:07:17.604Z,1008.01
2016-06-11T06:08:17.581Z,1008.02
2016-06-11T06:09:17.574Z,1007.99
2016-06-11T06:10:17.551Z,1008.01
2016-06-11T06:11:17.544Z,1008.01
2016-06-11T06:12:17.518Z,1008.05
2016-06-11T06:13:17.508Z,1008.06
2016-06-11T06:14:17.497Z,1008.03
2016-06-11T06:15:17.955Z,1008
2016-06-11T06:16:18.085Z,1008
2016-06-11T06:17:17.448Z,1008.01
2016-06-11T06:18:17.421Z,1008.07
2016-06-11T06:19:17.409Z,1007.96
2016-06-11T06:20:17.381Z,1007.95
2016-06-11T06:21:17.354Z,1008.02
2016-06-11T06:22:17.342Z,1007.99
2016-06-11T06:23:17.330Z,1008.02
2016-06-11T06:24:17.302Z,1008
2016-06-11T06:25:17.288Z,1007.98
2016-06-11T06:26:17.261Z,1007.97
2016-06-11T06:27:17.248Z,1007.98
2016-06-11T06:28:17.220Z,1007.97
2016-06-11T06:29:17.207Z,1007.98
2016-06-11T06:30:17.195Z,1007.95
2016-06-11T06:31:17.166Z,1007.96
2016-06-11T06:32:17.154Z,1007.93
2016-06-11T06:33:17.126Z,1007.94
2016-06-11T06:34:17.113Z,1007.98
2016-06-11T06:35:17.100Z,1007.96
2016-06-11T06:36:17.073Z,1007.97
2016-06-11T06:37:17.076Z,1007.97
2016-06-11T06:38:17.031Z,1007.99
2016-06-11T06:39:17.066Z,1008.02
2016-06-11T06:40:16.991Z,1007.99
2016-06-11T06:41:16.979Z,1008.01
2016-06-11T06:42:16.950Z,1008.02
2016-06-11T06:43:16.939Z,1007.97
2016-06-11T06:44:16.909Z,1007.98
2016-06-11T06:45:16.897Z,1008.04
2016-06-11T06:46:16.884Z,1008.03
2016-06-11T06:47:16.857Z,1008.02
2016-06-11T06:48:16.844Z,1008.08
2016-06-11T06:49:16.831Z,1008.07
2016-06-11T06:50:16.802Z,1008.08
2016-06-11T06:51:16.791Z,1008.04
2016-06-11T06:52:16.763Z,1008.06
2016-06-11T06:53:16.749Z,1008.12
2016-06-11T06:54:16.722Z,1008.11
2016-06-11T06:55:16.709Z,1008.13
2016-06-11T06:56:16.696Z,1008.13
2016-06-11T06:57:16.668Z,1008.14
2016-06-11T06:58:16.641Z,1008.08
2016-06-11T06:59:16.627Z,1008.11
2016-06-11T07:00:16.615Z,1008.11
2016-06-11T07:01:16.853Z,1008.09
2016-06-11T07:02:16.574Z,1008.2
2016-06-11T07:03:16.547Z,1008.14
2016-06-11T07:04:16.533Z,1008.13
2016-06-11T07:05:16.521Z,1008.12
2016-06-11T07:06:16.493Z,1008.19
2016-06-11T07:07:16.480Z,1008.22
2016-06-11T07:08:16.468Z,1008.22
2016-06-11T07:09:16.440Z,1008.17
2016-06-11T07:10:16.427Z,1008.17
2016-06-11T07:11:16.399Z,1008.24
2016-06-11T07:12:16.386Z,1008.18
2016-06-11T07:13:16.358Z,1008.21
2016-06-11T07:14:16.345Z,1008.19
2016-06-11T07:15:17.037Z,1008.2
2016-06-11T07:16:16.304Z,1008.26
2016-06-11T07:17:16.276Z,1008.2
2016-06-11T07:18:16.264Z,1008.21
2016-06-11T07:19:16.252Z,1008.2
2016-06-11T07:20:16.223Z,1008.19
2016-06-11T07:21:16.211Z,1008.2
2016-06-11T07:22:16.183Z,1008.24
2016-06-11T07:23:16.170Z,1008.27
2016-06-11T07:24:16.157Z,1008.25
2016-06-11T07:25:16.129Z,1008.28
2016-06-11T07:26:16.117Z,1008.23
2016-06-11T07:27:16.088Z,1008.29
2016-06-11T07:28:16.076Z,1008.25
2016-06-11T07:29:16.048Z,1008.27
2016-06-11T07:30:16.036Z,1008.31
2016-06-11T07:31:16.007Z,1008.28
2016-06-11T07:32:15.995Z,1008.29
2016-06-11T07:33:15.981Z,1008.24
2016-06-11T07:34:15.954Z,1008.27
2016-06-11T07:35:15.941Z,1008.27
2016-06-11T07:36:15.913Z,1008.22
2016-06-11T07:37:15.901Z,1008.26
2016-06-11T07:38:15.888Z,1008.29
2016-06-11T07:39:15.860Z,1008.27
2016-06-11T07:40:15.895Z,1008.29
2016-06-11T07:41:15.819Z,1008.27
2016-06-11T07:42:15.806Z,1008.27
2016-06-11T07:43:15.795Z,1008.27
2016-06-11T07:44:15.782Z,1008.24
2016-06-11T07:45:15.753Z,1008.28
2016-06-11T07:46:16.319Z,1008.23
2016-06-11T07:47:15.713Z,1008.24
2016-06-11T07:48:15.700Z,1008.27
2016-06-11T07:49:15.672Z,1008.28
2016-06-11T07:50:15.659Z,1008.27
2016-06-11T07:51:15.631Z,1008.25
2016-06-11T07:52:15.618Z,1008.25
2016-06-11T07:53:15.590Z,1008.31
2016-06-11T07:54:15.579Z,1008.24
2016-06-11T07:55:15.566Z,1008.22
2016-06-11T07:56:15.537Z,1008.25
2016-06-11T07:57:15.524Z,1008.25
2016-06-11T07:58:15.497Z,1008.22
2016-06-11T07:59:15.484Z,1008.28
2016-06-11T08:00:15.472Z,1008.24
2016-06-11T08:01:15.443Z,1008.26
2016-06-11T08:02:15.431Z,1008.21
2016-06-11T08:03:15.402Z,1008.22
2016-06-11T08:04:15.390Z,1008.26
2016-06-11T08:05:15.377Z,1008.22
2016-06-11T08:06:15.350Z,1008.24
2016-06-11T08:07:15.336Z,1008.22
2016-06-11T08:08:15.325Z,1008.22
2016-06-11T08:09:15.295Z,1008.25
2016-06-11T08:10:15.267Z,1008.21
2016-06-11T08:11:15.255Z,1008.19
2016-06-11T08:12:15.243Z,1008.12
2016-06-11T08:13:15.230Z,1008.17
2016-06-11T08:14:15.217Z,1008.19
2016-06-11T08:15:15.189Z,1008.19
2016-06-11T08:16:15.161Z,1008.23
2016-06-11T08:17:15.149Z,1008.18
2016-06-11T08:18:15.120Z,1008.19
2016-06-11T08:19:15.109Z,1008.21
2016-06-11T08:20:15.095Z,1008.17
2016-06-11T08:21:15.067Z,1008.21
2016-06-11T08:22:15.054Z,1008.18
2016-06-11T08:23:15.043Z,1008.16
2016-06-11T08:24:15.014Z,1008.22
2016-06-11T08:25:15.002Z,1008.19
2016-06-11T08:26:14.973Z,1008.21
2016-06-11T08:27:14.961Z,1008.19
2016-06-11T08:28:14.933Z,1008.15
2016-06-11T08:29:14.920Z,1008.17
2016-06-11T08:30:14.907Z,1008.21
2016-06-11T08:31:14.879Z,1008.23
2016-06-11T08:32:14.866Z,1008.18
2016-06-11T08:33:14.838Z,1008.16
2016-06-11T08:34:14.826Z,1008.15
2016-06-11T08:35:14.813Z,1008.19
2016-06-11T08:36:14.786Z,1008.13
2016-06-11T08:37:14.773Z,1008.16
2016-06-11T08:38:14.744Z,1008.14
2016-06-11T08:39:14.731Z,1008.17
2016-06-11T08:40:14.720Z,1008.15
2016-06-11T08:41:14.848Z,1008.22
2016-06-11T08:42:14.679Z,1008.16
2016-06-11T08:43:14.650Z,1008.13
2016-06-11T08:44:14.638Z,1008.08
2016-06-11T08:45:14.625Z,1008.11
2016-06-11T08:46:14.597Z,1008.09
2016-06-11T08:47:14.584Z,1008.11
2016-06-11T08:48:14.572Z,1008.11
2016-06-11T08:49:14.543Z,1008.11
2016-06-11T08:50:14.531Z,1008.13
2016-06-11T08:51:14.518Z,1008.12
2016-06-11T08:52:14.507Z,1008.1
2016-06-11T08:53:14.478Z,1008.17
2016-06-11T08:54:14.450Z,1008.12
2016-06-11T08:55:14.437Z,1008.1
2016-06-11T08:56:14.425Z,1008.1
2016-06-11T08:57:14.397Z,1008.13
2016-06-11T08:58:14.384Z,1008.1
2016-06-11T08:59:14.356Z,1008.06
2016-06-11T09:00:14.344Z,1008.07
2016-06-11T09:01:14.315Z,1008.05
2016-06-11T09:02:14.319Z,1008.07
2016-06-11T09:03:14.290Z,1008.08
2016-06-11T09:04:14.261Z,1008.07
2016-06-11T09:05:14.249Z,1008.07
2016-06-11T09:06:14.237Z,1008.08
2016-06-11T09:07:14.209Z,1008.03
2016-06-11T09:08:14.195Z,1008.06
2016-06-11T09:09:14.184Z,1008.12
2016-06-11T09:10:14.155Z,1008.06
2016-06-11T09:11:14.143Z,1008.06
2016-06-11T09:12:14.114Z,1008.05
2016-06-11T09:13:14.117Z,1008.02
2016-06-11T09:14:14.090Z,1008.01
2016-06-11T09:15:14.061Z,1008.02
2016-06-11T09:16:14.048Z,1008.04
2016-06-11T09:17:14.036Z,1008.02
2016-06-11T09:18:14.007Z,1008.05
2016-06-11T09:19:13.996Z,1008.03
2016-06-11T09:20:13.983Z,1008
2016-06-11T09:21:13.955Z,1007.96
2016-06-11T09:22:13.941Z,1008.05
2016-06-11T09:23:13.914Z,1008.07
2016-06-11T09:24:13.901Z,1008.06
2016-06-11T09:25:13.889Z,1008.04
2016-06-11T09:26:13.861Z,1008.03
2016-06-11T09:27:13.849Z,1008.02
2016-06-11T09:28:13.835Z,1008.08
2016-06-11T09:29:13.808Z,1008.03
2016-06-11T09:30:13.794Z,1008.03
2016-06-11T09:31:13.767Z,1008.01
2016-06-11T09:32:13.755Z,1007.99
2016-06-11T09:33:13.742Z,1007.99
2016-06-11T09:34:13.714Z,1008.06
2016-06-11T09:35:13.701Z,1008.04
2016-06-11T09:36:13.688Z,1008.05
2016-06-11T09:37:13.660Z,1008.03
2016-06-11T09:38:13.648Z,1008.01
2016-06-11T09:39:13.619Z,1008.06
2016-06-11T09:40:13.607Z,1008.02
2016-06-11T09:41:13.720Z,1008.03
2016-06-11T09:42:13.566Z,1008.05
2016-06-11T09:43:13.553Z,1007.98
2016-06-11T09:44:13.542Z,1007.99
2016-06-11T09:45:13.513Z,1007.97
2016-06-11T09:46:13.501Z,1007.99
2016-06-11T09:47:13.722Z,1007.95
2016-06-11T09:48:13.460Z,1007.95
2016-06-11T09:49:13.446Z,1007.93
2016-06-11T09:50:13.435Z,1007.92
2016-06-11T09:51:13.406Z,1007.89
2016-06-11T09:52:13.394Z,1007.88
2016-06-11T09:53:13.365Z,1007.92
2016-06-11T09:54:13.353Z,1007.93
2016-06-11T09:55:13.340Z,1007.87
2016-06-11T09:56:13.312Z,1007.9
2016-06-11T09:57:13.299Z,1007.89
2016-06-11T09:58:13.272Z,1007.91
2016-06-11T09:59:13.259Z,1007.93
2016-06-11T10:00:13.246Z,1007.92
2016-06-11T10:01:13.264Z,1007.94
2016-06-11T10:02:13.206Z,1007.92
2016-06-11T10:03:13.193Z,1007.91
2016-06-11T10:04:13.165Z,1007.91
2016-06-11T10:05:13.137Z,1008.01
2016-06-11T10:06:13.125Z,1007.94
2016-06-11T10:07:13.112Z,1007.93
2016-06-11T10:08:13.099Z,1007.93
2016-06-11T10:09:13.071Z,1007.93
2016-06-11T10:10:13.075Z,1007.86
2016-06-11T10:11:13.031Z,1007.88
2016-06-11T10:12:13.017Z,1007.84
2016-06-11T10:13:13.036Z,1007.87
2016-06-11T10:14:12.976Z,1007.93
2016-06-11T10:15:12.949Z,1007.88
2016-06-11T10:16:13.093Z,1007.87
2016-06-11T10:17:12.924Z,1007.88
2016-06-11T10:18:12.896Z,1007.91
2016-06-11T10:19:12.883Z,1007.9
2016-06-11T10:20:12.856Z,1007.89
2016-06-11T10:21:12.858Z,1007.84
2016-06-11T10:22:12.829Z,1007.86
2016-06-11T10:23:12.801Z,1007.86
2016-06-11T10:24:12.789Z,1007.87
2016-06-11T10:25:12.760Z,1007.89
2016-06-11T10:26:12.763Z,1007.88
2016-06-11T10:27:12.736Z,1007.93
2016-06-11T10:28:12.707Z,1007.92
2016-06-11T10:29:12.695Z,1007.98
2016-06-11T10:30:12.666Z,1007.94
2016-06-11T10:31:12.654Z,1007.99
2016-06-11T10:32:12.626Z,1007.93
2016-06-11T10:33:12.613Z,1007.92
2016-06-11T10:34:12.602Z,1007.9
2016-06-11T10:35:12.573Z,1007.98
2016-06-11T10:36:12.560Z,1007.88
2016-06-11T10:37:12.533Z,1007.91
2016-06-11T10:38:12.519Z,1007.93
2016-06-11T10:39:12.506Z,1007.91
2016-06-11T10:40:12.479Z,1007.87
2016-06-11T10:41:12.466Z,1007.87
2016-06-11T10:42:12.438Z,1007.9
2016-06-11T10:43:12.425Z,1007.93
2016-06-11T10:44:12.397Z,1007.91
2016-06-11T10:45:12.385Z,1007.95
2016-06-11T10:46:12.450Z,1007.94
2016-06-11T10:47:12.344Z,1007.92
2016-06-11T11:05:27.118Z,1007.86
2016-06-11T11:06:27.106Z,1007.87
2016-06-11T11:07:27.077Z,1007.85
2016-06-11T11:08:27.065Z,1007.87
2016-06-11T11:09:27.037Z,1007.89
2016-06-11T11:10:27.024Z,1007.85
2016-06-11T11:11:27.011Z,1007.86
2016-06-11T11:12:26.983Z,1007.87
2016-06-11T11:13:26.971Z,1007.86
2016-06-11T11:14:26.943Z,1007.88
2016-06-11T11:15:26.930Z,1007.8
2016-06-11T11:16:26.917Z,1007.88
2016-06-11T11:17:26.890Z,1007.83
2016-06-11T11:18:26.876Z,1007.86
2016-06-11T11:19:26.849Z,1007.85
2016-06-11T11:20:26.837Z,1007.87
2016-06-11T11:21:26.824Z,1007.83
2016-06-11T11:22:26.811Z,1007.8
2016-06-11T11:23:26.783Z,1007.82
2016-06-11T11:24:26.755Z,1007.82
2016-06-11T11:25:26.742Z,1007.83
2016-06-11T11:26:26.730Z,1007.78
2016-06-11T11:27:26.701Z,1007.84
2016-06-11T11:28:26.689Z,1007.79
2016-06-11T11:29:26.676Z,1007.77
2016-06-11T11:30:26.649Z,1007.73
2016-06-11T11:31:26.621Z,1007.8
2016-06-11T11:32:26.608Z,1007.79
2016-06-11T11:33:26.580Z,1007.78
2016-06-11T11:34:26.567Z,1007.85
2016-06-11T11:35:26.553Z,1007.83
2016-06-11T11:36:26.526Z,1007.81
2016-06-11T11:37:26.514Z,1007.82
2016-06-11T11:38:26.500Z,1007.84
2016-06-11T11:39:26.473Z,1007.79
2016-06-11T11:40:26.461Z,1007.84
2016-06-11T11:41:26.432Z,1007.8
2016-06-11T11:42:26.419Z,1007.77
2016-06-11T11:43:26.408Z,1007.75
2016-06-11T11:44:26.378Z,1007.78
2016-06-11T11:45:26.366Z,1007.81
2016-06-11T11:46:26.338Z,1007.79
2016-06-11T11:47:26.762Z,1007.75
2016-06-11T11:48:26.298Z,1007.75
2016-06-11T11:49:26.285Z,1007.77
2016-06-11T11:50:26.271Z,1007.71
2016-06-11T11:51:26.244Z,1007.68
2016-06-11T11:52:26.231Z,1007.72
2016-06-11T11:53:26.203Z,1007.77
2016-06-11T11:54:26.191Z,1007.71
2016-06-11T11:55:26.178Z,1007.66
2016-06-11T11:56:26.150Z,1007.62
2016-06-11T11:57:26.137Z,1007.7
2016-06-11T11:58:26.109Z,1007.71
2016-06-11T11:59:26.096Z,1007.66
2016-06-11T12:00:26.085Z,1007.69
2016-06-11T12:01:26.056Z,1007.65
2016-06-11T12:02:26.044Z,1007.71
2016-06-11T12:03:26.031Z,1007.68
2016-06-11T12:04:26.003Z,1007.68
2016-06-11T12:05:25.989Z,1007.7
2016-06-11T12:06:25.962Z,1007.61
2016-06-11T12:07:25.949Z,1007.61
2016-06-11T12:08:25.921Z,1007.63
2016-06-11T12:09:25.908Z,1007.67
2016-06-11T12:10:25.897Z,1007.63
2016-06-11T12:11:25.868Z,1007.57
2016-06-11T12:12:25.855Z,1007.57
2016-06-11T12:13:25.828Z,1007.6
2016-06-11T12:14:25.815Z,1007.62
2016-06-11T12:15:25.801Z,1007.61
2016-06-11T12:16:25.774Z,1007.67
2016-06-11T12:17:25.762Z,1007.64
2016-06-11T12:18:25.749Z,1007.64
2016-06-11T12:19:25.721Z,1007.64
2016-06-11T12:20:25.708Z,1007.6
2016-06-11T12:21:25.680Z,1007.65
2016-06-11T12:22:25.667Z,1007.61
2016-06-11T12:23:25.639Z,1007.63
2016-06-11T12:24:25.626Z,1007.59
2016-06-11T12:25:25.615Z,1007.56